Hovedside
METAR-TAF:

METAR-TAF

Lufthavner :

Vamdrup

Kolding, Danmark

breddegrad: 55-26N, lengdegrad: 009-20E, høyde over havet: 44 m

Gjeldene værobservasjon

Denne rapporten ble laget for 35 minutter siden, klokken 19:50 UTC
Vind 8 kt fra Øst
Temperatur 6°C
Luftfuktighet 93%
Trykk 1012 hPa

METAR: EKVD 141950Z AUTO 09008KT //// ///////// 06/05 Q1012

Tid: 21:25 (20:25 UTC)

Varsel

Denne rapporten ble laget for 8 timer og 31 minutter siden, klokken 11:54 UTC
Varsel gyldig fra 14. klokken 12 UTC til 14. klokken 17 UTC
Vind 8 kt fra Sør
Sikt: 0300 m
i en høyde av 100 ft
tåke
Blir
fra 14. klokken 12 UTC til 14. klokken 14 UTC
Sikt: 5000 m
Brutte skyer i en høyde av 800 ft
Blir
fra 14. klokken 14 UTC til 14. klokken 15 UTC
Spredte skyer i en høyde av 800 ft

TAF: EKVD 141154Z 1412/1417 18008KT 0300 FG VV001 BECMG 1412/1414 5000 NSW BKN008 BECMG 1414/1415 SCT008

Værobservasjoner og værvarsel for over 4000 flyplasser (METAR- og TAF-rapporter).

Tilgjengelige stasjoner er representert av de røde og gule prikkene på kartet.

Hold musepekeren over prikken for å se navnet på stasjonen.

Klikk så for å se værobservasjoner og -varsler.

For å forandre kartet kan du klikke på den grønne knappen med svart kryss for å zoome inn, på den grønne knappen med strek for å zoome ut, eller på de grønne pilene for å se tilstøtende kart.


METAR-TAF: